Time;durP1;ratioP1;P1;durP2;ratioP2;P2;SDS_P1;SDS_P2;PMS_P1;PMS_P2;Temp;Humidity;BMP_temperature;BMP_pressure;BME280_temperature;BME280_humidity;BME280_pressure;Samples;Min_cycle;Max_cycle;Signal;HPM_P1;HPM_P2
2022/06/16 00:02:00;;;;;;;1999.90;999.90;;;17.50;1.00;;;;;;5073635;28;20210;-60
2022/06/16 00:04:28;;;;;;;1999.90;999.90;;;17.40;99.90;;;;;;5072752;28;20202;-60
2022/06/16 00:06:55;;;;;;;1999.90;999.90;;;17.40;1.00;;;;;;5073549;28;20210;-60
2022/06/16 00:09:24;;;;;;;1999.90;999.90;;;17.40;51.10;;;;;;5073559;28;20205;-61
2022/06/16 00:11:51;;;;;;;1999.90;999.90;;;17.30;1.00;;;;;;5073145;28;20201;-61
2022/06/16 00:14:19;;;;;;;1999.90;999.90;;;17.30;1.00;;;;;;5072996;28;20888;-61
2022/06/16 00:16:46;;;;;;;1999.90;999.90;;;17.40;1.00;;;;;;5073390;28;20258;-61
2022/06/16 00:19:13;;;;;;;1999.90;999.90;;;17.30;1.00;;;;;;5073068;28;20244;-61
2022/06/16 00:21:41;;;;;;;1999.90;999.90;;;17.30;1.00;;;;;;5072773;28;20217;-61
2022/06/16 00:24:08;;;;;;;1999.90;999.90;;;17.30;1.00;;;;;;5073288;28;20288;-61
2022/06/16 00:26:38;;;;;;;1999.90;999.90;;;17.20;99.90;;;;;;5072902;28;20580;-61
2022/06/16 00:29:04;;;;;;;1999.90;999.90;;;17.20;99.90;;;;;;5073108;28;20195;-60
2022/06/16 00:31:31;;;;;;;1999.90;999.90;;;17.20;99.90;;;;;;5073151;28;20553;-61
2022/06/16 00:33:58;;;;;;;1999.90;999.90;;;17.20;1.00;;;;;;5073089;28;20196;-61
2022/06/16 00:36:25;;;;;;;1999.90;999.90;;;17.10;1.00;;;;;;5073004;28;20198;-60
2022/06/16 00:38:52;;;;;;;1999.90;999.90;;;17.00;99.90;;;;;;5073056;28;20197;-61
2022/06/16 00:41:19;;;;;;;1999.90;999.90;;;17.00;99.90;;;;;;5073025;28;20201;-61
2022/06/16 00:43:47;;;;;;;1999.90;999.90;;;17.10;99.90;;;;;;5072537;28;20686;-61
2022/06/16 00:46:17;;;;;;;1999.90;999.90;;;17.00;99.90;;;;;;5072681;28;20197;-60
2022/06/16 00:48:47;;;;;;;1999.90;999.90;;;17.00;99.90;;;;;;5072841;28;20257;-61
2022/06/16 00:51:18;;;;;;;1999.90;999.90;;;17.00;1.00;;;;;;5072725;28;20204;-61
2022/06/16 00:53:46;;;;;;;1999.90;999.90;;;17.10;1.00;;;;;;5072868;28;20178;-61
2022/06/16 00:56:17;;;;;;;1999.90;999.90;;;17.00;1.00;;;;;;5072798;28;20546;-61
2022/06/16 00:58:49;;;;;;;1999.90;999.90;;;17.00;1.00;;;;;;5072774;28;20194;-60
2022/06/16 01:01:20;;;;;;;1999.90;999.90;;;16.90;1.00;;;;;;5072754;28;20198;-61
2022/06/16 01:06:32;;;;;;;1999.90;999.90;;;16.90;1.00;;;;;;5072306;28;20173;-61
2022/06/16 01:09:02;;;;;;;1999.90;999.90;;;16.90;1.00;;;;;;5072391;28;20254;-61
2022/06/16 01:14:39;;;;;;;1999.90;999.90;;;16.80;1.00;;;;;;5049711;28;20236;-61
2022/06/16 01:17:17;;;;;;;1999.90;999.90;;;16.80;99.90;;;;;;5072624;28;20183;-61
2022/06/16 01:20:07;;;;;;;1999.90;999.90;;;16.80;1.00;;;;;;5071959;28;20242;-60
2022/06/16 01:22:53;;;;;;;1999.90;999.90;;;16.80;17.20;;;;;;5072393;28;20997;-60
2022/06/16 01:25:26;;;;;;;1999.90;999.90;;;16.70;85.40;;;;;;5072577;28;20550;-60
2022/06/16 01:28:19;;;;;;;1999.90;999.90;;;16.70;1.00;;;;;;5072426;28;20180;-61
2022/06/16 01:30:54;;;;;;;1999.90;999.90;;;16.60;1.00;;;;;;5072434;28;20180;-60
2022/06/16 01:33:26;;;;;;;1999.90;999.90;;;16.50;99.90;;;;;;5072543;28;20237;-60
2022/06/16 01:36:04;;;;;;;1999.90;999.90;;;16.60;99.90;;;;;;5072381;28;20194;-60
2022/06/16 01:38:38;;;;;;;1999.90;999.90;;;16.50;99.90;;;;;;5072371;28;20176;-61
2022/06/16 01:41:11;;;;;;;1999.90;999.90;;;16.40;99.90;;;;;;5072410;28;20195;-61
2022/06/16 01:43:42;;;;;;;1999.90;999.90;;;16.40;1.00;;;;;;5072171;28;20552;-60
2022/06/16 01:46:16;;;;;;;1999.90;999.90;;;16.30;47.60;;;;;;5072219;28;20202;-60
2022/06/16 01:48:48;;;;;;;1999.90;999.90;;;16.30;99.90;;;;;;5072261;28;20188;-60
2022/06/16 01:51:20;;;;;;;1999.90;999.90;;;16.20;1.00;;;;;;5071832;28;20660;-60
2022/06/16 01:53:52;;;;;;;1999.90;999.90;;;16.10;99.90;;;;;;5072242;28;20250;-61
2022/06/16 01:56:24;;;;;;;1999.90;999.90;;;16.00;1.00;;;;;;5072278;28;20198;-61
2022/06/16 01:58:56;;;;;;;1999.90;999.90;;;16.00;1.00;;;;;;5072207;28;20175;-60
2022/06/16 02:01:27;;;;;;;1999.90;999.90;;;15.90;99.90;;;;;;5072228;28;20188;-60
2022/06/16 02:04:02;;;;;;;1999.90;999.90;;;15.90;1.00;;;;;;5072074;28;20254;-60
2022/06/16 02:06:33;;;;;;;1999.90;999.90;;;15.80;77.90;;;;;;5072143;28;20191;-60
2022/06/16 02:09:06;;;;;;;1999.90;999.90;;;15.80;99.90;;;;;;5071823;28;20185;-60
2022/06/16 02:11:34;;;;;;;1999.90;999.90;;;15.70;99.90;;;;;;5072072;28;20342;-61
2022/06/16 02:14:08;;;;;;;1999.90;999.90;;;15.70;99.90;;;;;;5071972;28;20197;-60
2022/06/16 02:16:39;;;;;;;1999.90;999.90;;;15.60;1.00;;;;;;5072030;28;20179;-60
2022/06/16 02:19:09;;;;;;;1999.90;999.90;;;15.60;1.00;;;;;;5071504;28;20731;-60
2022/06/16 02:21:39;;;;;;;1999.90;999.90;;;15.60;1.00;;;;;;5071797;28;20197;-60
2022/06/16 02:24:09;;;;;;;1999.90;999.90;;;15.60;1.00;;;;;;5071898;28;20233;-60
2022/06/16 02:26:38;;;;;;;1999.90;999.90;;;15.50;1.00;;;;;;5072513;28;20187;-60
2022/06/16 02:29:23;;;;;;;1999.90;999.90;;;15.50;1.00;;;;;;5075483;28;20206;-60
2022/06/16 02:32:13;;;;;;;1999.90;999.90;;;15.40;1.00;;;;;;5075445;28;20187;-60
2022/06/16 02:34:48;;;;;;;1999.90;999.90;;;15.40;1.00;;;;;;5072709;28;20214;-60
2022/06/16 02:37:31;;;;;;;1999.90;999.90;;;15.30;1.00;;;;;;5078629;28;20291;-61
2022/06/16 02:40:21;;;;;;;1999.90;999.90;;;15.30;17.20;;;;;;5075329;28;20236;-61
2022/06/16 02:42:57;;;;;;;1999.90;999.90;;;15.20;79.60;;;;;;5075145;28;20199;-60
2022/06/16 02:45:33;;;;;;;1999.90;999.90;;;15.20;99.90;;;;;;5075167;28;20190;-61
2022/06/16 02:48:08;;;;;;;1999.90;999.90;;;15.20;99.90;;;;;;5075242;28;20190;-60
2022/06/16 02:50:43;;;;;;;1999.90;999.90;;;15.10;99.90;;;;;;5074770;28;20187;-61
2022/06/16 02:53:24;;;;;;;1999.90;999.90;;;15.10;99.90;;;;;;5074875;28;20187;-61
2022/06/16 02:55:58;;;;;;;1999.90;999.90;;;15.00;99.90;;;;;;5075148;28;20183;-61
2022/06/16 02:58:26;;;;;;;1999.90;999.90;;;15.00;99.90;;;;;;5075075;28;20187;-60
2022/06/16 03:00:55;;;;;;;1999.90;999.90;;;15.00;99.90;;;;;;5075039;28;20203;-60
2022/06/16 03:03:26;;;;;;;1999.90;999.90;;;14.90;99.90;;;;;;5074880;28;20217;-60
2022/06/16 03:05:54;;;;;;;1999.90;999.90;;;15.00;99.90;;;;;;5074898;28;20188;-60
2022/06/16 03:08:22;;;;;;;1999.90;999.90;;;14.90;99.90;;;;;;5074846;28;20195;-61
2022/06/16 03:10:51;;;;;;;1999.90;999.90;;;14.90;99.90;;;;;;5074839;28;20199;-60
2022/06/16 03:13:19;;;;;;;1999.90;999.90;;;14.90;99.90;;;;;;5074647;28;20202;-60
2022/06/16 03:15:46;;;;;;;1999.90;999.90;;;15.00;99.90;;;;;;5074384;28;20764;-60
2022/06/16 03:18:13;;;;;;;1999.90;999.90;;;15.00;99.90;;;;;;5074658;28;20203;-61
2022/06/16 03:20:41;;;;;;;1999.90;999.90;;;15.00;99.90;;;;;;5074089;28;20567;-60
2022/06/16 03:23:08;;;;;;;1999.90;999.90;;;15.10;99.90;;;;;;5074218;28;20207;-61
2022/06/16 03:25:36;;;;;;;1999.90;999.90;;;15.10;99.90;;;;;;5074276;28;20881;-60
2022/06/16 03:28:03;;;;;;;1999.90;999.90;;;15.10;99.90;;;;;;5074091;28;20199;-60
2022/06/16 03:30:30;;;;;;;1999.90;999.90;;;15.10;99.90;;;;;;5074111;28;21025;-60
2022/06/16 03:32:57;;;;;;;1999.90;999.90;;;15.10;99.90;;;;;;5074326;28;20191;-60
2022/06/16 03:35:25;;;;;;;1999.90;999.90;;;15.10;99.90;;;;;;5073972;28;20672;-60
2022/06/16 03:37:53;;;;;;;1999.90;999.90;;;15.10;99.90;;;;;;5074293;28;20203;-60
2022/06/16 03:40:20;;;;;;;1999.90;999.90;;;15.00;99.90;;;;;;5074187;28;20206;-60
2022/06/16 03:42:48;;;;;;;1999.90;999.90;;;15.00;99.90;;;;;;5073962;28;20199;-60
2022/06/16 03:45:15;;;;;;;1999.90;999.90;;;15.00;99.90;;;;;;5074061;28;20608;-60
2022/06/16 03:47:42;;;;;;;1999.90;999.90;;;15.00;99.90;;;;;;5074035;28;20619;-60
2022/06/16 03:50:13;;;;;;;1999.90;999.90;;;14.90;99.90;;;;;;5073992;28;20222;-60
2022/06/16 03:52:40;;;;;;;1999.90;999.90;;;14.90;99.90;;;;;;5073555;28;20179;-60
2022/06/16 03:55:09;;;;;;;1999.90;999.90;;;15.00;99.90;;;;;;5073903;28;20187;-61
2022/06/16 03:57:36;;;;;;;1999.90;999.90;;;14.90;99.90;;;;;;5073861;28;20211;-60
2022/06/16 04:00:04;;;;;;;1999.90;999.90;;;14.90;99.90;;;;;;5073864;28;20260;-60
2022/06/16 04:02:32;;;;;;;1999.90;999.90;;;15.00;99.90;;;;;;5073801;28;20202;-60
2022/06/16 04:05:00;;;;;;;1999.90;999.90;;;15.00;99.90;;;;;;5076890;28;20277;-62
2022/06/16 04:07:28;;;;;;;1999.90;999.90;;;15.00;99.90;;;;;;5073507;28;20294;-60
2022/06/16 04:09:55;;;;;;;1999.90;999.90;;;15.00;99.90;;;;;;5073644;28;20231;-61
2022/06/16 04:12:23;;;;;;;1999.90;999.90;;;15.00;99.90;;;;;;5073403;28;20214;-60
2022/06/16 04:14:50;;;;;;;1999.90;999.90;;;15.00;99.90;;;;;;5073058;28;20202;-60
2022/06/16 04:17:17;;;;;;;1999.90;999.90;;;15.00;99.90;;;;;;5073481;28;20202;-60
2022/06/16 04:22:25;;;;;;;1999.90;999.90;;;15.00;99.90;;;;;;5072729;28;20284;-60
2022/06/16 04:24:52;;;;;;;1999.90;999.90;;;15.10;99.90;;;;;;5073192;28;20207;-60
2022/06/16 04:27:19;;;;;;;1999.90;999.90;;;15.10;99.90;;;;;;5072926;28;20722;-60
2022/06/16 04:29:47;;;;;;;1999.90;999.90;;;15.10;99.90;;;;;;5073123;28;20204;-61
2022/06/16 04:32:14;;;;;;;1999.90;999.90;;;15.20;99.90;;;;;;5072831;28;20210;-60
2022/06/16 04:34:42;;;;;;;1999.90;999.90;;;15.20;99.90;;;;;;5073084;28;20210;-60
2022/06/16 04:37:10;;;;;;;1999.90;999.90;;;15.20;99.90;;;;;;5073125;28;20197;-60
2022/06/16 04:39:37;;;;;;;1999.90;999.90;;;15.30;99.90;;;;;;5073036;28;20218;-60
2022/06/16 04:42:05;;;;;;;1999.90;999.90;;;15.30;99.90;;;;;;5072952;28;20213;-60
2022/06/16 04:44:34;;;;;;;1999.90;999.90;;;15.30;99.90;;;;;;5072810;28;20301;-60
2022/06/16 04:47:03;;;;;;;1999.90;999.90;;;15.30;99.90;;;;;;5072975;28;20237;-60
2022/06/16 04:49:30;;;;;;;1999.90;999.90;;;15.30;99.90;;;;;;5072523;28;20199;-60
2022/06/16 04:51:57;;;;;;;1999.90;999.90;;;15.40;87.90;;;;;;5072780;28;20203;-60
2022/06/16 04:54:24;;;;;;;1999.90;999.90;;;15.40;20.40;;;;;;5072875;28;20226;-60
2022/06/16 04:56:52;;;;;;;1999.90;999.90;;;15.50;1.00;;;;;;5072531;28;20198;-61
2022/06/16 04:59:19;;;;;;;1999.90;999.90;;;15.60;1.00;;;;;;5072740;28;20277;-60
2022/06/16 05:01:46;;;;;;;1999.90;999.90;;;15.60;99.90;;;;;;5072710;28;20199;-60
2022/06/16 05:04:14;;;;;;;1999.90;999.90;;;15.70;99.90;;;;;;5072676;28;20211;-60
2022/06/16 05:06:41;;;;;;;1999.90;999.90;;;15.80;1.00;;;;;;5072711;28;20221;-60
2022/06/16 05:09:08;;;;;;;1999.90;999.90;;;16.10;1.00;;;;;;5072702;28;20281;-61
2022/06/16 05:11:35;;;;;;;1999.90;999.90;;;16.40;99.90;;;;;;5072634;28;20200;-61
2022/06/16 05:14:02;;;;;;;1999.90;999.90;;;16.90;70.20;;;;;;5072569;28;20201;-60
2022/06/16 05:16:29;;;;;;;1999.90;999.90;;;17.40;1.00;;;;;;5072574;28;20198;-60
2022/06/16 05:18:56;;;;;;;1999.90;999.90;;;17.80;1.00;;;;;;5072139;28;20325;-60
2022/06/16 05:21:25;;;;;;;1999.90;999.90;;;18.10;16.00;;;;;;5072228;28;20548;-60
2022/06/16 05:23:51;;;;;;;1999.90;999.90;;;18.40;1.00;;;;;;5071846;28;20218;-61
2022/06/16 05:26:18;;;;;;;1999.90;999.90;;;18.80;99.90;;;;;;5071985;28;20195;-61
2022/06/16 05:28:45;;;;;;;1999.90;999.90;;;19.10;1.00;;;;;;5071836;28;20194;-61
2022/06/16 05:31:12;;;;;;;1999.90;999.90;;;19.40;1.00;;;;;;5071933;28;20302;-61
2022/06/16 05:33:39;;;;;;;1999.90;999.90;;;19.70;99.90;;;;;;5072110;28;20536;-61
2022/06/16 05:36:08;;;;;;;1999.90;999.90;;;19.90;99.90;;;;;;5072084;28;20199;-61
2022/06/16 05:38:37;;;;;;;1999.90;999.90;;;19.90;1.00;;;;;;5072045;28;20207;-63
2022/06/16 05:41:07;;;;;;;1999.90;999.90;;;20.30;1.00;;;;;;5071974;28;20198;-62
2022/06/16 05:43:34;;;;;;;1999.90;999.90;;;20.40;1.00;;;;;;5071745;28;20217;-62
2022/06/16 05:46:02;;;;;;;1999.90;999.90;;;20.40;99.90;;;;;;5071816;28;20199;-61
2022/06/16 05:48:29;;;;;;;1999.90;999.90;;;20.40;99.90;;;;;;5071968;28;20198;-62
2022/06/16 05:51:02;;;;;;;1999.90;999.90;;;20.60;99.90;;;;;;5071537;28;20710;-60
2022/06/16 05:53:29;;;;;;;1999.90;999.90;;;20.80;42.50;;;;;;5071951;28;20187;-60
2022/06/16 05:55:57;;;;;;;1999.90;999.90;;;21.00;1.00;;;;;;5071971;28;20191;-60
2022/06/16 05:58:24;;;;;;;1999.90;999.90;;;21.10;1.00;;;;;;5071844;28;20203;-60
2022/06/16 06:00:51;;;;;;;1999.90;999.90;;;21.10;1.00;;;;;;5071861;28;20203;-60
2022/06/16 06:03:18;;;;;;;1999.90;999.90;;;21.00;1.00;;;;;;5074860;28;20207;-60
2022/06/16 06:05:45;;;;;;;1999.90;999.90;;;21.50;1.00;;;;;;5075576;28;20213;-60
2022/06/16 06:16:42;;;;;;;1999.90;999.90;;;22.00;99.90;;;;;;5033018;28;20334;-60
2022/06/16 06:19:27;;;;;;;1999.90;999.90;;;21.80;99.90;;;;;;5032747;28;20201;-60
2022/06/16 06:22:00;;;;;;;1999.90;999.90;;;22.20;99.90;;;;;;5032842;28;20200;-60
2022/06/16 06:24:29;;;;;;;1999.90;999.90;;;22.40;92.50;;;;;;5032900;28;20690;-60
2022/06/16 06:26:59;;;;;;;1999.90;999.90;;;22.40;27.70;;;;;;5032961;28;20560;-61
2022/06/16 06:29:26;;;;;;;1999.90;999.90;;;22.40;1.00;;;;;;5032775;28;20204;-61
2022/06/16 06:31:53;;;;;;;1999.90;999.90;;;22.70;1.00;;;;;;5032820;28;20300;-60
2022/06/16 06:34:20;;;;;;;1999.90;999.90;;;22.90;1.00;;;;;;5032733;28;20197;-60
2022/06/16 06:36:48;;;;;;;1999.90;999.90;;;23.20;1.00;;;;;;5032625;28;20200;-61
2022/06/16 06:39:15;;;;;;;1999.90;999.90;;;23.00;1.00;;;;;;5032594;28;20211;-61
2022/06/16 06:41:42;;;;;;;1999.90;999.90;;;23.20;1.00;;;;;;5032489;28;20212;-61
2022/06/16 06:44:10;;;;;;;1999.90;999.90;;;23.40;1.00;;;;;;5032298;28;20212;-61
2022/06/16 06:46:37;;;;;;;1999.90;999.90;;;23.30;1.00;;;;;;5035794;28;20219;-61
2022/06/16 06:49:04;;;;;;;1999.90;999.90;;;23.50;1.00;;;;;;5074899;28;20191;-61
2022/06/16 06:51:32;;;;;;;1999.90;999.90;;;23.30;1.00;;;;;;5074471;28;20679;-61
2022/06/16 06:53:59;;;;;;;1999.90;999.90;;;23.70;1.00;;;;;;5074428;28;20602;-61
2022/06/16 06:56:27;;;;;;;1999.90;999.90;;;23.80;1.00;;;;;;5074688;28;20210;-61
2022/06/16 06:58:55;;;;;;;1999.90;999.90;;;24.20;1.00;;;;;;5074683;28;20198;-61
2022/06/16 07:01:24;;;;;;;1999.90;999.90;;;23.90;99.90;;;;;;5074589;28;20211;-61
2022/06/16 07:03:51;;;;;;;1999.90;999.90;;;23.50;99.90;;;;;;5074541;28;20249;-61
2022/06/16 07:06:18;;;;;;;1999.90;999.90;;;24.00;99.90;;;;;;5074219;28;20194;-61
2022/06/16 07:08:46;;;;;;;1999.90;999.90;;;24.70;99.90;;;;;;5074400;28;20214;-61
2022/06/16 07:11:13;;;;;;;1999.90;999.90;;;24.60;99.90;;;;;;5074478;28;20195;-61
2022/06/16 07:13:41;;;;;;;1999.90;999.90;;;24.90;99.90;;;;;;5073943;28;20529;-61
2022/06/16 07:16:09;;;;;;;1999.90;999.90;;;24.90;99.90;;;;;;5074327;28;20203;-60
2022/06/16 07:18:38;;;;;;;1999.90;999.90;;;25.50;99.90;;;;;;5074025;28;20789;-61
2022/06/16 07:21:06;;;;;;;1999.90;999.90;;;25.70;99.90;;;;;;5073694;28;20734;-61
2022/06/16 07:23:33;;;;;;;1999.90;999.90;;;25.80;99.90;;;;;;5073904;28;20203;-62
2022/06/16 07:26:00;;;;;;;1999.90;999.90;;;26.00;99.90;;;;;;5074085;28;20264;-62
2022/06/16 07:28:27;;;;;;;1999.90;999.90;;;25.80;99.90;;;;;;5073967;28;20205;-61
2022/06/16 07:30:54;;;;;;;1999.90;999.90;;;25.70;99.90;;;;;;5074037;28;20232;-61
2022/06/16 07:33:23;;;;;;;1999.90;999.90;;;25.70;99.90;;;;;;5073927;28;20207;-61
2022/06/16 07:35:53;;;;;;;1999.90;999.90;;;26.10;99.90;;;;;;5073964;28;20191;-61
2022/06/16 07:38:21;;;;;;;1999.90;999.90;;;26.00;99.90;;;;;;5073875;28;20195;-61
2022/06/16 07:40:48;;;;;;;1999.90;999.90;;;25.80;99.90;;;;;;5073820;28;20225;-62
2022/06/16 07:43:15;;;;;;;1999.90;999.90;;;26.00;99.90;;;;;;5073912;28;20199;-61
2022/06/16 07:45:42;;;;;;;1999.90;999.90;;;26.10;99.90;;;;;;5073643;28;20210;-62
2022/06/16 07:48:09;;;;;;;1999.90;999.90;;;26.00;99.90;;;;;;5073837;28;20244;-62
2022/06/16 07:50:37;;;;;;;1999.90;999.90;;;26.50;97.60;;;;;;5073620;28;20256;-63
2022/06/16 07:53:07;;;;;;;1999.90;999.90;;;26.60;83.60;;;;;;5073373;28;20194;-62
2022/06/16 07:55:34;;;;;;;1999.90;999.90;;;26.80;60.10;;;;;;5073560;28;20218;-62
2022/06/16 07:58:01;;;;;;;1999.90;999.90;;;26.70;37.30;;;;;;5073509;28;20610;-62
2022/06/16 08:00:34;;;;;;;1999.90;999.90;;;26.90;31.80;;;;;;5073499;28;20297;-59
2022/06/16 08:03:01;;;;;;;1999.90;999.90;;;27.20;11.40;;;;;;5073192;28;20538;-60
2022/06/16 08:05:28;;;;;;;1999.90;999.90;;;27.00;6.60;;;;;;5072982;28;20215;-59
2022/06/16 08:07:56;;;;;;;1999.90;999.90;;;27.70;2.10;;;;;;5073355;28;20557;-59
2022/06/16 08:10:27;;;;;;;1999.90;999.90;;;27.30;1.00;;;;;;5073303;28;20590;-59
2022/06/16 08:12:54;;;;;;;1999.90;999.90;;;26.50;1.00;;;;;;5072997;28;20593;-60
2022/06/16 08:15:21;;;;;;;1999.90;999.90;;;26.10;1.00;;;;;;5073067;28;20198;-60
2022/06/16 08:17:51;;;;;;;1999.90;999.90;;;26.60;1.00;;;;;;5073072;28;20203;-59
2022/06/16 08:20:19;;;;;;;1999.90;999.90;;;26.90;1.00;;;;;;5072795;28;20230;-59
2022/06/16 08:22:45;;;;;;;1999.90;999.90;;;26.60;1.00;;;;;;5072887;28;20210;-59
2022/06/16 08:25:15;;;;;;;1999.90;999.90;;;26.30;1.00;;;;;;5071972;28;20734;-60
2022/06/16 08:27:45;;;;;;;1999.90;999.90;;;26.90;1.00;;;;;;5072974;28;20249;-59
2022/06/16 08:30:17;;;;;;;1999.90;999.90;;;27.20;1.00;;;;;;5072687;28;20619;-60
2022/06/16 08:32:45;;;;;;;1999.90;999.90;;;27.20;1.00;;;;;;5073006;28;20194;-59
2022/06/16 08:35:12;;;;;;;1999.90;999.90;;;27.50;1.00;;;;;;5072873;28;20203;-59
2022/06/16 08:37:39;;;;;;;1999.90;999.90;;;27.30;1.00;;;;;;5072450;28;20989;-60
2022/06/16 08:40:08;;;;;;;1999.90;999.90;;;27.50;1.00;;;;;;5072428;28;20589;-59
2022/06/16 08:42:42;;;;;;;1999.90;999.90;;;27.30;1.00;;;;;;5072762;28;20198;-59
2022/06/16 08:45:21;;;;;;;1999.90;999.90;;;27.30;1.00;;;;;;5072555;28;20210;-59
2022/06/16 08:48:08;;;;;;;1999.90;999.90;;;27.00;1.00;;;;;;5072347;28;20559;-59
2022/06/16 08:50:39;;;;;;;1999.90;999.90;;;26.70;1.00;;;;;;5072315;28;20197;-59
2022/06/16 08:53:18;;;;;;;1999.90;999.90;;;26.30;1.00;;;;;;5072623;28;20175;-59
2022/06/16 08:55:54;;;;;;;1999.90;999.90;;;26.30;1.00;;;;;;5072280;28;20640;-59
2022/06/16 08:58:30;;;;;;;1999.90;999.90;;;26.50;1.00;;;;;;5072220;28;20624;-59
2022/06/16 09:01:06;;;;;;;1999.90;999.90;;;26.90;1.00;;;;;;5072537;28;20190;-59
2022/06/16 09:03:41;;;;;;;1999.90;999.90;;;26.90;1.00;;;;;;5072454;28;20183;-59
2022/06/16 09:06:32;;;;;;;1999.90;999.90;;;27.10;1.00;;;;;;5072311;28;20209;-59
2022/06/16 09:09:07;;;;;;;1999.90;999.90;;;27.20;1.00;;;;;;5072405;28;20184;-59
2022/06/16 09:11:41;;;;;;;1999.90;999.90;;;27.30;1.00;;;;;;5072317;28;20277;-59
2022/06/16 09:17:31;;;;;;;1999.90;999.90;;;27.60;1.00;;;;;;5072251;28;20210;-59
2022/06/16 09:20:10;;;;;;;1999.90;999.90;;;27.50;1.00;;;;;;5071956;28;20230;-60
2022/06/16 09:22:57;;;;;;;1999.90;999.90;;;27.10;1.00;;;;;;5072203;28;20540;-59
2022/06/16 09:25:45;;;;;;;1999.90;999.90;;;27.40;1.00;;;;;;5072221;28;20586;-60
2022/06/16 09:28:17;;;;;;;1999.90;999.90;;;27.50;1.00;;;;;;5072208;28;20219;-59
2022/06/16 09:30:48;;;;;;;1999.90;999.90;;;27.80;1.00;;;;;;5072203;28;20183;-60
2022/06/16 09:33:21;;;;;;;1999.90;999.90;;;27.90;1.00;;;;;;5072203;28;20286;-59
2022/06/16 09:35:53;;;;;;;1999.90;999.90;;;28.00;1.00;;;;;;5073121;28;20185;-60
2022/06/16 09:38:26;;;;;;;1999.90;999.90;;;28.10;1.00;;;;;;5076291;28;20525;-60
2022/06/16 09:40:58;;;;;;;1999.90;999.90;;;27.70;1.00;;;;;;5076307;28;20190;-63
2022/06/16 09:43:32;;;;;;;1999.90;999.90;;;28.60;1.00;;;;;;5076003;28;20222;-60
2022/06/16 09:46:02;;;;;;;1999.90;999.90;;;28.80;1.00;;;;;;5076101;28;20601;-59
2022/06/16 09:48:35;;;;;;;1999.90;999.90;;;28.70;1.00;;;;;;5076066;28;20229;-60
2022/06/16 09:51:08;;;;;;;1999.90;999.90;;;28.40;1.00;;;;;;5075600;28;20233;-60
2022/06/16 09:53:40;;;;;;;1999.90;999.90;;;28.60;1.00;;;;;;5075986;28;20183;-60
2022/06/16 09:56:13;;;;;;;1999.90;999.90;;;29.10;1.00;;;;;;5075963;28;20583;-60
2022/06/16 09:58:45;;;;;;;1999.90;999.90;;;28.80;1.00;;;;;;5075848;28;20179;-60
2022/06/16 10:01:16;;;;;;;1999.90;999.90;;;28.30;1.00;;;;;;5075566;28;20176;-60
2022/06/16 10:03:53;;;;;;;1999.90;999.90;;;28.40;1.00;;;;;;5075468;28;20187;-60
2022/06/16 10:06:37;;;;;;;1999.90;999.90;;;28.90;1.00;;;;;;5075688;28;20283;-60
2022/06/16 10:09:15;;;;;;;1999.90;999.90;;;29.20;1.00;;;;;;5075738;28;20290;-60
2022/06/16 10:11:52;;;;;;;1999.90;999.90;;;28.50;1.00;;;;;;5075630;28;20252;-60
2022/06/16 10:14:25;;;;;;;1999.90;999.90;;;29.10;1.00;;;;;;5075189;28;20198;-60
2022/06/16 10:16:56;;;;;;;1999.90;999.90;;;29.40;1.00;;;;;;5075570;28;20581;-60
2022/06/16 10:19:28;;;;;;;1999.90;999.90;;;28.70;1.00;;;;;;5075225;28;20279;-58
2022/06/16 10:21:55;;;;;;;1999.90;999.90;;;28.80;1.00;;;;;;5075366;28;20233;-58
2022/06/16 10:24:26;;;;;;;1999.90;999.90;;;29.40;1.00;;;;;;5075469;28;20260;-58
2022/06/16 10:26:54;;;;;;;1999.90;999.90;;;29.40;1.00;;;;;;5074955;28;20203;-59
2022/06/16 10:29:24;;;;;;;1999.90;999.90;;;29.50;1.00;;;;;;5075233;28;20198;-58
2022/06/16 10:31:54;;;;;;;1999.90;999.90;;;29.40;1.00;;;;;;5075170;28;20198;-58
2022/06/16 10:34:29;;;;;;;1999.90;999.90;;;29.40;1.00;;;;;;5075061;28;20301;-58
2022/06/16 10:37:02;;;;;;;1999.90;999.90;;;29.10;1.00;;;;;;5075147;28;20236;-58
2022/06/16 10:39:40;;;;;;;1999.90;999.90;;;29.70;1.00;;;;;;5074834;28;20638;-59
2022/06/16 10:42:18;;;;;;;1999.90;999.90;;;29.70;1.00;;;;;;5075099;28;20183;-57
2022/06/16 10:44:54;;;;;;;1999.90;999.90;;;29.70;1.00;;;;;;5074551;28;20229;-58
2022/06/16 10:47:25;;;;;;;1999.90;999.90;;;29.80;1.00;;;;;;5074323;28;20532;-58
2022/06/16 10:49:53;;;;;;;1999.90;999.90;;;29.70;1.00;;;;;;5074956;28;20195;-58
2022/06/16 10:52:28;;;;;;;1999.90;999.90;;;29.80;1.00;;;;;;5074784;28;20198;-58
2022/06/16 10:55:02;;;;;;;1999.90;999.90;;;29.90;1.00;;;;;;5074952;28;20186;-58
2022/06/16 10:57:31;;;;;;;1999.90;999.90;;;30.30;1.00;;;;;;5074857;28;20176;-58
2022/06/16 11:00:08;;;;;;;1999.90;999.90;;;30.00;1.00;;;;;;5074735;28;20229;-58
2022/06/16 11:02:37;;;;;;;1999.90;999.90;;;30.00;1.00;;;;;;5074463;28;20640;-58
2022/06/16 11:05:11;;;;;;;1999.90;999.90;;;30.30;1.00;;;;;;5074523;28;20203;-58
2022/06/16 11:07:41;;;;;;;1999.90;999.90;;;30.10;1.00;;;;;;5074726;28;20512;-58
2022/06/16 11:10:10;;;;;;;1999.90;999.90;;;30.60;1.00;;;;;;5074619;28;20203;-58
2022/06/16 11:12:41;;;;;;;1999.90;999.90;;;30.40;1.00;;;;;;5074560;28;20191;-58
2022/06/16 11:15:28;;;;;;;1999.90;999.90;;;29.90;1.00;;;;;;5074419;28;20194;-58
2022/06/16 11:17:57;;;;;;;1999.90;999.90;;;29.80;1.00;;;;;;5074548;28;20266;-57
2022/06/16 11:20:34;;;;;;;1999.90;999.90;;;29.90;1.00;;;;;;5074029;28;20227;-58
2022/06/16 11:23:18;;;;;;;1999.90;999.90;;;30.20;1.00;;;;;;5074337;28;20236;-57
2022/06/16 11:25:45;;;;;;;1999.90;999.90;;;30.10;1.00;;;;;;5074043;28;20672;-59
2022/06/16 11:28:16;;;;;;;1999.90;999.90;;;29.80;1.00;;;;;;5074244;28;20206;-58
2022/06/16 11:30:53;;;;;;;1999.90;999.90;;;30.00;1.00;;;;;;5074260;28;20175;-58
2022/06/16 11:36:11;;;;;;;1999.90;999.90;;;30.10;1.00;;;;;;5073451;28;20187;-58
2022/06/16 11:38:45;;;;;;;1999.90;999.90;;;30.00;1.00;;;;;;5074014;28;20196;-58
2022/06/16 11:41:15;;;;;;;1999.90;999.90;;;30.30;1.00;;;;;;5074039;28;20286;-59
2022/06/16 11:44:16;;;;;;;1999.90;999.90;;;30.90;1.00;;;;;;5073812;28;20606;-58
2022/06/16 11:46:49;;;;;;;1999.90;999.90;;;30.30;1.00;;;;;;5071170;28;20230;-58
2022/06/16 11:49:30;;;;;;;1999.90;999.90;;;30.00;1.00;;;;;;5073627;28;20188;-58
2022/06/16 11:52:08;;;;;;;1999.90;999.90;;;29.90;1.00;;;;;;5073770;28;20218;-58
2022/06/16 11:54:53;;;;;;;1999.90;999.90;;;30.10;1.00;;;;;;5073819;28;20582;-58
2022/06/16 11:57:28;;;;;;;1999.90;999.90;;;30.70;1.00;;;;;;5073705;28;20178;-59
2022/06/16 12:00:18;;;;;;;1999.90;999.90;;;30.50;1.00;;;;;;5072577;28;20190;-59
2022/06/16 12:03:08;;;;;;;1999.90;999.90;;;30.10;1.00;;;;;;5073618;28;20229;-58
2022/06/16 12:05:40;;;;;;;1999.90;999.90;;;29.80;1.00;;;;;;5073456;28;20315;-58
2022/06/16 12:08:40;;;;;;;1999.90;999.90;;;29.90;1.00;;;;;;5073449;28;20187;-58
2022/06/16 12:11:12;;;;;;;1999.90;999.90;;;30.10;1.00;;;;;;5046380;28;20206;-58
2022/06/16 12:13:49;;;;;;;1999.90;999.90;;;30.30;1.00;;;;;;5073151;28;20187;-59
2022/06/16 12:16:23;;;;;;;1999.90;999.90;;;30.10;1.00;;;;;;5073323;28;20267;-59
2022/06/16 12:19:03;;;;;;;1999.90;999.90;;;30.00;1.00;;;;;;5073053;28;20620;-58
2022/06/16 12:21:37;;;;;;;1999.90;999.90;;;30.60;1.00;;;;;;5073146;28;20240;-58
2022/06/16 12:24:11;;;;;;;1999.90;999.90;;;30.10;1.00;;;;;;5073215;28;20639;-59
2022/06/16 12:26:45;;;;;;;1999.90;999.90;;;30.10;1.00;;;;;;5072954;28;20198;-59
2022/06/16 12:29:24;;;;;;;1999.90;999.90;;;30.80;1.00;;;;;;5073056;28;20187;-58
2022/06/16 12:32:00;;;;;;;1999.90;999.90;;;30.60;1.00;;;;;;5072784;28;20189;-58
2022/06/16 12:34:42;;;;;;;1999.90;999.90;;;30.70;1.00;;;;;;5072979;28;20232;-58
2022/06/16 12:37:14;;;;;;;1999.90;999.90;;;30.50;1.00;;;;;;5072987;28;20214;-58
2022/06/16 12:39:47;;;;;;;1999.90;999.90;;;30.90;1.00;;;;;;5072517;28;20644;-58
2022/06/16 12:42:20;;;;;;;1999.90;999.90;;;31.00;1.00;;;;;;5072774;28;20179;-59
2022/06/16 12:44:53;;;;;;;1999.90;999.90;;;30.50;1.00;;;;;;5072625;28;20647;-59
2022/06/16 12:47:25;;;;;;;1999.90;999.90;;;30.10;1.00;;;;;;5072379;28;20215;-59